sensor_id;sensor_type;location;lat;lon;timestamp;P1;P2;P0
80555;PMS5003;69889;55.040;73.076;2023-08-06T00:00:27;15.00;14.00;9.00
80555;PMS5003;69889;55.040;73.076;2023-08-06T00:02:54;16.75;15.00;10.00
80555;PMS5003;69889;55.040;73.076;2023-08-06T00:05:20;16.25;15.00;10.00
80555;PMS5003;69889;55.040;73.076;2023-08-06T00:07:47;17.50;15.25;9.25
80555;PMS5003;69889;55.040;73.076;2023-08-06T00:10:15;16.25;15.00;10.00
80555;PMS5003;69889;55.040;73.076;2023-08-06T00:12:43;13.50;13.00;9.00
80555;PMS5003;69889;55.040;73.076;2023-08-06T00:15:10;16.00;14.25;9.00
80555;PMS5003;69889;55.040;73.076;2023-08-06T00:17:37;14.25;12.50;8.25
80555;PMS5003;69889;55.040;73.076;2023-08-06T00:20:04;16.25;14.50;9.75
80555;PMS5003;69889;55.040;73.076;2023-08-06T00:22:32;15.50;14.00;9.00
80555;PMS5003;69889;55.040;73.076;2023-08-06T00:24:59;16.50;15.00;10.00
80555;PMS5003;69889;55.040;73.076;2023-08-06T00:27:25;18.00;16.00;9.00
80555;PMS5003;69889;55.040;73.076;2023-08-06T00:29:52;18.00;15.00;10.00
80555;PMS5003;69889;55.040;73.076;2023-08-06T00:32:19;15.00;13.75;9.00
80555;PMS5003;69889;55.040;73.076;2023-08-06T00:34:45;18.00;16.00;9.25
80555;PMS5003;69889;55.040;73.076;2023-08-06T00:37:14;17.00;16.00;11.00
80555;PMS5003;69889;55.040;73.076;2023-08-06T00:39:40;16.00;14.00;9.00
80555;PMS5003;69889;55.040;73.076;2023-08-06T00:42:07;16.50;15.00;10.00
80555;PMS5003;69889;55.040;73.076;2023-08-06T00:44:34;20.00;17.00;11.00
80555;PMS5003;69889;55.040;73.076;2023-08-06T00:47:01;20.00;18.00;11.00
80555;PMS5003;69889;55.040;73.076;2023-08-06T00:49:27;21.00;18.75;13.00
80555;PMS5003;69889;55.040;73.076;2023-08-06T00:51:54;22.00;19.25;13.00
80555;PMS5003;69889;55.040;73.076;2023-08-06T00:54:21;22.00;19.75;13.00
80555;PMS5003;69889;55.040;73.076;2023-08-06T00:56:47;24.00;21.25;14.00
80555;PMS5003;69889;55.040;73.076;2023-08-06T00:59:14;23.50;20.75;13.25
80555;PMS5003;69889;55.040;73.076;2023-08-06T01:01:41;23.00;20.00;12.00
80555;PMS5003;69889;55.040;73.076;2023-08-06T01:04:07;21.25;19.00;12.00
80555;PMS5003;69889;55.040;73.076;2023-08-06T01:09:12;23.00;21.00;14.00
80555;PMS5003;69889;55.040;73.076;2023-08-06T01:11:53;24.00;21.00;13.00
80555;PMS5003;69889;55.040;73.076;2023-08-06T01:14:30;22.25;20.75;14.00
80555;PMS5003;69889;55.040;73.076;2023-08-06T01:17:01;25.25;23.00;16.00
80555;PMS5003;69889;55.040;73.076;2023-08-06T01:19:27;27.00;23.00;14.50
80555;PMS5003;69889;55.040;73.076;2023-08-06T01:21:54;27.75;24.75;15.00
80555;PMS5003;69889;55.040;73.076;2023-08-06T01:24:20;28.25;24.00;16.00
80555;PMS5003;69889;55.040;73.076;2023-08-06T01:27:08;28.50;24.75;16.50
80555;PMS5003;69889;55.040;73.076;2023-08-06T01:29:47;27.00;24.00;15.00
80555;PMS5003;69889;55.040;73.076;2023-08-06T01:32:17;27.00;24.00;15.00
80555;PMS5003;69889;55.040;73.076;2023-08-06T01:34:45;27.25;25.00;16.00
80555;PMS5003;69889;55.040;73.076;2023-08-06T01:37:13;26.00;23.00;15.25
80555;PMS5003;69889;55.040;73.076;2023-08-06T01:39:40;27.75;24.00;15.75
80555;PMS5003;69889;55.040;73.076;2023-08-06T01:42:08;27.00;24.00;15.50
80555;PMS5003;69889;55.040;73.076;2023-08-06T01:44:35;26.00;23.00;16.00
80555;PMS5003;69889;55.040;73.076;2023-08-06T01:47:02;26.00;23.00;16.00
80555;PMS5003;69889;55.040;73.076;2023-08-06T01:49:28;27.75;24.00;15.00
80555;PMS5003;69889;55.040;73.076;2023-08-06T01:51:56;27.75;24.00;15.00
80555;PMS5003;69889;55.040;73.076;2023-08-06T01:54:22;27.00;23.00;15.75
80555;PMS5003;69889;55.040;73.076;2023-08-06T01:56:51;26.50;23.75;15.50
80555;PMS5003;69889;55.040;73.076;2023-08-06T01:59:17;25.50;23.00;15.00
80555;PMS5003;69889;55.040;73.076;2023-08-06T02:01:44;27.25;24.00;16.00
80555;PMS5003;69889;55.040;73.076;2023-08-06T02:04:11;26.25;23.75;16.00
80555;PMS5003;69889;55.040;73.076;2023-08-06T02:06:37;26.00;23.75;16.00
80555;PMS5003;69889;55.040;73.076;2023-08-06T02:09:04;27.75;23.75;15.25
80555;PMS5003;69889;55.040;73.076;2023-08-06T02:11:31;23.00;20.00;12.75
80555;PMS5003;69889;55.040;73.076;2023-08-06T02:13:57;26.50;23.00;15.00
80555;PMS5003;69889;55.040;73.076;2023-08-06T02:16:24;23.75;21.00;13.00
80555;PMS5003;69889;55.040;73.076;2023-08-06T02:18:50;24.00;20.75;13.00
80555;PMS5003;69889;55.040;73.076;2023-08-06T02:21:24;24.00;20.75;13.00
80555;PMS5003;69889;55.040;73.076;2023-08-06T02:23:53;22.25;20.00;13.00
80555;PMS5003;69889;55.040;73.076;2023-08-06T02:26:19;23.00;20.50;13.75
80555;PMS5003;69889;55.040;73.076;2023-08-06T02:28:46;25.25;22.00;14.00
80555;PMS5003;69889;55.040;73.076;2023-08-06T02:31:14;24.50;22.00;14.00
80555;PMS5003;69889;55.040;73.076;2023-08-06T02:33:41;23.00;20.00;12.00
80555;PMS5003;69889;55.040;73.076;2023-08-06T02:36:07;24.25;20.00;13.00
80555;PMS5003;69889;55.040;73.076;2023-08-06T02:38:34;21.25;19.00;12.00
80555;PMS5003;69889;55.040;73.076;2023-08-06T02:41:02;21.50;19.00;13.00
80555;PMS5003;69889;55.040;73.076;2023-08-06T02:43:30;21.00;19.25;12.50
80555;PMS5003;69889;55.040;73.076;2023-08-06T02:46:00;19.00;17.00;11.25
80555;PMS5003;69889;55.040;73.076;2023-08-06T02:48:27;21.00;18.00;11.50
80555;PMS5003;69889;55.040;73.076;2023-08-06T02:50:56;19.00;17.00;12.00
80555;PMS5003;69889;55.040;73.076;2023-08-06T02:53:23;16.50;14.75;10.00
80555;PMS5003;69889;55.040;73.076;2023-08-06T02:55:50;17.75;16.00;9.00
80555;PMS5003;69889;55.040;73.076;2023-08-06T02:58:20;17.50;15.50;10.00
80555;PMS5003;69889;55.040;73.076;2023-08-06T03:01:05;16.00;15.00;10.00
80555;PMS5003;69889;55.040;73.076;2023-08-06T03:03:41;15.50;14.25;9.50
80555;PMS5003;69889;55.040;73.076;2023-08-06T03:06:08;14.00;13.00;9.00
80555;PMS5003;69889;55.040;73.076;2023-08-06T03:08:48;14.00;12.75;8.50
80555;PMS5003;69889;55.040;73.076;2023-08-06T03:11:14;16.00;15.00;10.00
80555;PMS5003;69889;55.040;73.076;2023-08-06T03:13:41;17.00;15.00;10.00
80555;PMS5003;69889;55.040;73.076;2023-08-06T03:16:08;15.00;14.00;9.00
80555;PMS5003;69889;55.040;73.076;2023-08-06T03:18:35;15.50;14.00;9.50
80555;PMS5003;69889;55.040;73.076;2023-08-06T03:21:05;14.25;13.00;9.00
80555;PMS5003;69889;55.040;73.076;2023-08-06T03:23:32;18.00;14.00;9.00
80555;PMS5003;69889;55.040;73.076;2023-08-06T03:26:02;15.00;13.00;9.00
80555;PMS5003;69889;55.040;73.076;2023-08-06T03:28:31;14.00;13.00;9.00
80555;PMS5003;69889;55.040;73.076;2023-08-06T03:31:01;16.75;15.00;10.00
80555;PMS5003;69889;55.040;73.076;2023-08-06T03:33:32;17.00;15.00;9.00
80555;PMS5003;69889;55.040;73.076;2023-08-06T03:36:00;16.00;15.00;10.00
80555;PMS5003;69889;55.040;73.076;2023-08-06T03:38:28;15.00;13.00;8.75
80555;PMS5003;69889;55.040;73.076;2023-08-06T03:40:55;15.00;13.50;9.00
80555;PMS5003;69889;55.040;73.076;2023-08-06T03:43:22;16.00;15.00;9.00
80555;PMS5003;69889;55.040;73.076;2023-08-06T03:45:48;16.00;15.00;10.00
80555;PMS5003;69889;55.040;73.076;2023-08-06T03:48:15;16.00;15.00;10.00
80555;PMS5003;69889;55.040;73.076;2023-08-06T03:50:41;16.00;15.00;10.50
80555;PMS5003;69889;55.040;73.076;2023-08-06T03:53:12;17.25;15.50;10.00
80555;PMS5003;69889;55.040;73.076;2023-08-06T03:55:39;16.25;15.00;10.00
80555;PMS5003;69889;55.040;73.076;2023-08-06T03:58:06;16.75;14.25;10.00
80555;PMS5003;69889;55.040;73.076;2023-08-06T04:00:32;18.25;16.50;11.00
80555;PMS5003;69889;55.040;73.076;2023-08-06T04:02:59;18.00;16.50;10.50
80555;PMS5003;69889;55.040;73.076;2023-08-06T04:05:30;15.25;14.25;10.00
80555;PMS5003;69889;55.040;73.076;2023-08-06T04:07:57;17.00;15.50;11.00
80555;PMS5003;69889;55.040;73.076;2023-08-06T04:10:23;17.00;15.00;10.00
80555;PMS5003;69889;55.040;73.076;2023-08-06T04:12:50;19.00;17.00;10.00
80555;PMS5003;69889;55.040;73.076;2023-08-06T04:15:16;20.00;17.00;11.00
80555;PMS5003;69889;55.040;73.076;2023-08-06T04:17:43;16.50;16.00;10.25
80555;PMS5003;69889;55.040;73.076;2023-08-06T04:20:29;16.25;15.50;10.00
80555;PMS5003;69889;55.040;73.076;2023-08-06T04:23:14;17.00;15.50;10.25
80555;PMS5003;69889;55.040;73.076;2023-08-06T04:26:00;17.00;16.00;11.00
80555;PMS5003;69889;55.040;73.076;2023-08-06T04:28:31;18.25;16.75;11.00
80555;PMS5003;69889;55.040;73.076;2023-08-06T04:30:58;22.00;20.00;12.00
80555;PMS5003;69889;55.040;73.076;2023-08-06T04:33:25;19.00;18.00;12.75
80555;PMS5003;69889;55.040;73.076;2023-08-06T04:35:55;22.00;20.00;13.00
80555;PMS5003;69889;55.040;73.076;2023-08-06T04:38:24;21.00;19.00;12.25
80555;PMS5003;69889;55.040;73.076;2023-08-06T04:40:52;19.00;17.50;11.00
80555;PMS5003;69889;55.040;73.076;2023-08-06T04:43:19;20.25;18.25;12.00
80555;PMS5003;69889;55.040;73.076;2023-08-06T04:45:46;21.00;19.00;13.00
80555;PMS5003;69889;55.040;73.076;2023-08-06T04:48:13;23.00;21.00;14.00
80555;PMS5003;69889;55.040;73.076;2023-08-06T04:50:44;21.00;19.00;12.00
80555;PMS5003;69889;55.040;73.076;2023-08-06T04:53:11;22.00;20.00;12.75
80555;PMS5003;69889;55.040;73.076;2023-08-06T04:55:37;23.75;22.00;13.00
80555;PMS5003;69889;55.040;73.076;2023-08-06T04:58:04;21.00;19.00;13.00
80555;PMS5003;69889;55.040;73.076;2023-08-06T05:00:31;20.75;18.50;13.75
80555;PMS5003;69889;55.040;73.076;2023-08-06T05:02:59;20.00;20.00;12.00
80555;PMS5003;69889;55.040;73.076;2023-08-06T05:05:26;24.00;22.00;14.00
80555;PMS5003;69889;55.040;73.076;2023-08-06T05:07:53;25.00;23.00;16.00
80555;PMS5003;69889;55.040;73.076;2023-08-06T05:10:20;24.00;21.00;13.00
80555;PMS5003;69889;55.040;73.076;2023-08-06T05:12:46;22.50;20.50;14.00
80555;PMS5003;69889;55.040;73.076;2023-08-06T05:15:13;25.00;22.75;15.00
80555;PMS5003;69889;55.040;73.076;2023-08-06T05:17:39;22.00;21.00;14.00
80555;PMS5003;69889;55.040;73.076;2023-08-06T05:20:06;23.00;20.50;13.25
80555;PMS5003;69889;55.040;73.076;2023-08-06T05:22:33;24.00;22.00;15.00
80555;PMS5003;69889;55.040;73.076;2023-08-06T05:25:00;22.50;21.00;13.75
80555;PMS5003;69889;55.040;73.076;2023-08-06T05:27:27;26.25;24.00;16.00
80555;PMS5003;69889;55.040;73.076;2023-08-06T05:29:56;24.00;22.00;16.00
80555;PMS5003;69889;55.040;73.076;2023-08-06T05:32:23;28.00;25.00;16.00
80555;PMS5003;69889;55.040;73.076;2023-08-06T05:34:50;25.25;22.50;15.75
80555;PMS5003;69889;55.040;73.076;2023-08-06T05:37:16;28.00;25.00;17.00
80555;PMS5003;69889;55.040;73.076;2023-08-06T05:39:43;28.00;25.00;16.00
80555;PMS5003;69889;55.040;73.076;2023-08-06T05:42:09;26.00;23.00;15.00
80555;PMS5003;69889;55.040;73.076;2023-08-06T05:44:36;27.50;24.25;17.00
80555;PMS5003;69889;55.040;73.076;2023-08-06T05:47:02;29.00;25.50;16.75
80555;PMS5003;69889;55.040;73.076;2023-08-06T05:49:29;27.50;25.00;17.00
80555;PMS5003;69889;55.040;73.076;2023-08-06T05:51:55;27.50;25.00;17.00
80555;PMS5003;69889;55.040;73.076;2023-08-06T05:54:22;28.00;25.00;17.00
80555;PMS5003;69889;55.040;73.076;2023-08-06T05:56:48;25.75;23.25;17.00
80555;PMS5003;69889;55.040;73.076;2023-08-06T05:59:15;31.00;26.00;17.00
80555;PMS5003;69889;55.040;73.076;2023-08-06T06:01:42;28.00;25.00;17.00
80555;PMS5003;69889;55.040;73.076;2023-08-06T06:04:08;30.25;27.00;18.00
80555;PMS5003;69889;55.040;73.076;2023-08-06T06:06:35;28.00;25.00;17.00
80555;PMS5003;69889;55.040;73.076;2023-08-06T06:09:01;27.50;24.25;16.00
80555;PMS5003;69889;55.040;73.076;2023-08-06T06:11:28;29.50;25.50;16.50
80555;PMS5003;69889;55.040;73.076;2023-08-06T06:13:55;32.75;28.00;19.00
80555;PMS5003;69889;55.040;73.076;2023-08-06T06:16:23;29.00;25.00;17.00
80555;PMS5003;69889;55.040;73.076;2023-08-06T06:18:50;30.00;26.00;18.00
80555;PMS5003;69889;55.040;73.076;2023-08-06T06:21:17;32.00;27.25;18.00
80555;PMS5003;69889;55.040;73.076;2023-08-06T06:23:43;29.75;26.00;18.00
80555;PMS5003;69889;55.040;73.076;2023-08-06T06:26:10;35.00;30.00;19.00
80555;PMS5003;69889;55.040;73.076;2023-08-06T06:28:37;30.00;26.00;18.00
80555;PMS5003;69889;55.040;73.076;2023-08-06T06:31:03;33.00;28.00;18.00
80555;PMS5003;69889;55.040;73.076;2023-08-06T06:33:32;33.75;28.50;18.75
80555;PMS5003;69889;55.040;73.076;2023-08-06T06:35:58;31.00;26.75;18.00
80555;PMS5003;69889;55.040;73.076;2023-08-06T06:38:25;27.75;24.00;16.50
80555;PMS5003;69889;55.040;73.076;2023-08-06T06:40:57;30.50;26.00;17.75
80555;PMS5003;69889;55.040;73.076;2023-08-06T06:43:24;32.25;27.00;18.00
80555;PMS5003;69889;55.040;73.076;2023-08-06T06:45:57;30.00;26.00;17.50
80555;PMS5003;69889;55.040;73.076;2023-08-06T06:48:27;33.75;28.00;18.00
80555;PMS5003;69889;55.040;73.076;2023-08-06T06:50:53;33.00;28.75;20.00
80555;PMS5003;69889;55.040;73.076;2023-08-06T06:53:20;33.00;28.00;19.00
80555;PMS5003;69889;55.040;73.076;2023-08-06T06:55:47;28.00;25.00;18.00
80555;PMS5003;69889;55.040;73.076;2023-08-06T06:58:15;31.00;26.00;18.00
80555;PMS5003;69889;55.040;73.076;2023-08-06T07:00:43;31.00;26.00;17.00
80555;PMS5003;69889;55.040;73.076;2023-08-06T07:03:09;31.00;26.00;17.00
80555;PMS5003;69889;55.040;73.076;2023-08-06T07:05:36;37.00;30.00;20.00
80555;PMS5003;69889;55.040;73.076;2023-08-06T07:08:03;33.25;28.00;19.00
80555;PMS5003;69889;55.040;73.076;2023-08-06T07:10:29;32.50;28.50;19.00
80555;PMS5003;69889;55.040;73.076;2023-08-06T07:12:56;35.00;29.00;19.00
80555;PMS5003;69889;55.040;73.076;2023-08-06T07:15:22;33.00;27.75;18.00
80555;PMS5003;69889;55.040;73.076;2023-08-06T07:17:49;37.00;31.00;19.25
80555;PMS5003;69889;55.040;73.076;2023-08-06T07:20:15;31.75;27.25;18.00
80555;PMS5003;69889;55.040;73.076;2023-08-06T07:22:42;30.75;26.50;18.00
80555;PMS5003;69889;55.040;73.076;2023-08-06T07:25:08;31.00;26.75;18.00
80555;PMS5003;69889;55.040;73.076;2023-08-06T07:27:35;36.00;29.00;18.25
80555;PMS5003;69889;55.040;73.076;2023-08-06T07:30:01;32.00;28.00;19.00
80555;PMS5003;69889;55.040;73.076;2023-08-06T07:32:31;37.00;30.50;19.00
80555;PMS5003;69889;55.040;73.076;2023-08-06T07:34:58;39.50;31.50;18.50
80555;PMS5003;69889;55.040;73.076;2023-08-06T07:37:28;38.75;32.00;20.00
80555;PMS5003;69889;55.040;73.076;2023-08-06T07:39:58;41.00;33.00;21.00
80555;PMS5003;69889;55.040;73.076;2023-08-06T07:42:24;33.75;28.25;18.25
80555;PMS5003;69889;55.040;73.076;2023-08-06T07:44:57;33.50;28.00;19.00
80555;PMS5003;69889;55.040;73.076;2023-08-06T07:47:24;31.00;27.00;18.00
80555;PMS5003;69889;55.040;73.076;2023-08-06T07:49:51;28.50;25.25;17.00
80555;PMS5003;69889;55.040;73.076;2023-08-06T07:52:17;29.00;26.00;18.00
80555;PMS5003;69889;55.040;73.076;2023-08-06T07:54:44;29.00;25.25;17.00
80555;PMS5003;69889;55.040;73.076;2023-08-06T07:57:13;30.00;25.50;17.00
80555;PMS5003;69889;55.040;73.076;2023-08-06T07:59:41;25.50;24.00;17.00
80555;PMS5003;69889;55.040;73.076;2023-08-06T08:02:07;27.50;24.25;16.25
80555;PMS5003;69889;55.040;73.076;2023-08-06T08:04:35;29.75;27.00;19.00
80555;PMS5003;69889;55.040;73.076;2023-08-06T08:07:01;30.75;27.00;18.00
80555;PMS5003;69889;55.040;73.076;2023-08-06T08:09:28;26.25;24.25;17.00
80555;PMS5003;69889;55.040;73.076;2023-08-06T08:11:54;29.00;26.00;17.00
80555;PMS5003;69889;55.040;73.076;2023-08-06T08:14:21;29.00;24.25;17.00
80555;PMS5003;69889;55.040;73.076;2023-08-06T08:16:47;30.00;26.00;17.00
80555;PMS5003;69889;55.040;73.076;2023-08-06T08:19:14;28.00;25.25;17.00
80555;PMS5003;69889;55.040;73.076;2023-08-06T08:21:40;28.00;25.00;17.00
80555;PMS5003;69889;55.040;73.076;2023-08-06T08:24:07;26.50;24.25;17.00
80555;PMS5003;69889;55.040;73.076;2023-08-06T08:26:34;25.25;23.25;16.50
80555;PMS5003;69889;55.040;73.076;2023-08-06T08:29:00;28.50;25.25;17.50
80555;PMS5003;69889;55.040;73.076;2023-08-06T08:31:27;27.00;24.00;16.00
80555;PMS5003;69889;55.040;73.076;2023-08-06T08:33:54;27.00;24.50;17.00
80555;PMS5003;69889;55.040;73.076;2023-08-06T08:36:21;30.00;26.00;17.00
80555;PMS5003;69889;55.040;73.076;2023-08-06T08:38:47;25.50;22.75;16.00
80555;PMS5003;69889;55.040;73.076;2023-08-06T08:41:21;27.25;25.00;17.00
80555;PMS5003;69889;55.040;73.076;2023-08-06T08:43:50;27.50;24.50;16.25
80555;PMS5003;69889;55.040;73.076;2023-08-06T08:46:19;29.25;25.00;17.25
80555;PMS5003;69889;55.040;73.076;2023-08-06T08:48:48;30.75;26.50;17.50
80555;PMS5003;69889;55.040;73.076;2023-08-06T08:51:15;30.00;26.00;17.00
80555;PMS5003;69889;55.040;73.076;2023-08-06T08:53:43;29.00;25.75;17.00
80555;PMS5003;69889;55.040;73.076;2023-08-06T08:56:10;26.75;24.75;17.00
80555;PMS5003;69889;55.040;73.076;2023-08-06T08:58:39;28.00;25.00;16.50
80555;PMS5003;69889;55.040;73.076;2023-08-06T09:01:08;28.00;25.00;17.00
80555;PMS5003;69889;55.040;73.076;2023-08-06T09:03:43;26.00;23.00;16.00
80555;PMS5003;69889;55.040;73.076;2023-08-06T09:06:10;29.25;25.25;16.00
80555;PMS5003;69889;55.040;73.076;2023-08-06T09:08:40;24.50;22.25;15.00
80555;PMS5003;69889;55.040;73.076;2023-08-06T09:11:09;27.25;24.00;16.00
80555;PMS5003;69889;55.040;73.076;2023-08-06T09:13:37;29.00;24.00;16.00
80555;PMS5003;69889;55.040;73.076;2023-08-06T09:16:05;28.00;24.00;17.00
80555;PMS5003;69889;55.040;73.076;2023-08-06T09:18:31;29.00;26.00;17.00
80555;PMS5003;69889;55.040;73.076;2023-08-06T09:20:58;27.00;24.00;16.00
80555;PMS5003;69889;55.040;73.076;2023-08-06T09:23:28;26.00;23.50;16.00
80555;PMS5003;69889;55.040;73.076;2023-08-06T09:25:59;25.25;23.00;14.75
80555;PMS5003;69889;55.040;73.076;2023-08-06T09:28:36;31.00;26.50;17.00
80555;PMS5003;69889;55.040;73.076;2023-08-06T09:31:04;33.00;27.00;17.00
80555;PMS5003;69889;55.040;73.076;2023-08-06T09:33:30;28.00;24.00;16.50
80555;PMS5003;69889;55.040;73.076;2023-08-06T09:35:56;24.00;22.00;16.00
80555;PMS5003;69889;55.040;73.076;2023-08-06T09:38:23;27.00;24.00;16.00
80555;PMS5003;69889;55.040;73.076;2023-08-06T09:40:49;26.00;23.00;16.00
80555;PMS5003;69889;55.040;73.076;2023-08-06T09:43:18;26.25;23.00;16.00
80555;PMS5003;69889;55.040;73.076;2023-08-06T09:45:45;23.00;21.00;15.00
80555;PMS5003;69889;55.040;73.076;2023-08-06T09:48:11;25.75;23.00;17.00
80555;PMS5003;69889;55.040;73.076;2023-08-06T09:50:38;27.00;24.00;17.00
80555;PMS5003;69889;55.040;73.076;2023-08-06T09:53:05;26.00;23.00;16.00
80555;PMS5003;69889;55.040;73.076;2023-08-06T09:55:33;25.00;23.00;15.00
80555;PMS5003;69889;55.040;73.076;2023-08-06T09:57:59;25.00;22.50;15.50
80555;PMS5003;69889;55.040;73.076;2023-08-06T10:00:26;25.00;22.00;15.00
80555;PMS5003;69889;55.040;73.076;2023-08-06T10:02:55;23.00;20.50;14.00
80555;PMS5003;69889;55.040;73.076;2023-08-06T10:05:25;23.00;20.50;14.50
80555;PMS5003;69889;55.040;73.076;2023-08-06T10:07:52;25.00;22.00;14.75
80555;PMS5003;69889;55.040;73.076;2023-08-06T10:10:20;24.00;22.00;16.00
80555;PMS5003;69889;55.040;73.076;2023-08-06T10:12:48;26.50;23.00;16.00
80555;PMS5003;69889;55.040;73.076;2023-08-06T10:15:17;20.00;18.00;13.00
80555;PMS5003;69889;55.040;73.076;2023-08-06T10:17:47;23.75;21.25;13.50
80555;PMS5003;69889;55.040;73.076;2023-08-06T10:20:13;25.00;23.00;15.00
80555;PMS5003;69889;55.040;73.076;2023-08-06T10:22:43;23.00;20.50;14.00
80555;PMS5003;69889;55.040;73.076;2023-08-06T10:25:16;22.00;20.00;13.00
80555;PMS5003;69889;55.040;73.076;2023-08-06T10:30:31;26.25;23.00;15.00
80555;PMS5003;69889;55.040;73.076;2023-08-06T10:32:58;22.00;20.00;14.00
80555;PMS5003;69889;55.040;73.076;2023-08-06T10:35:34;19.00;17.50;12.00
80555;PMS5003;69889;55.040;73.076;2023-08-06T10:40:40;24.00;21.75;14.50
80555;PMS5003;69889;55.040;73.076;2023-08-06T10:43:11;21.25;18.75;11.75
80555;PMS5003;69889;55.040;73.076;2023-08-06T10:45:50;22.00;19.00;12.75
80555;PMS5003;69889;55.040;73.076;2023-08-06T10:51:08;19.50;18.00;13.00
80555;PMS5003;69889;55.040;73.076;2023-08-06T10:53:35;20.00;18.00;12.00
80555;PMS5003;69889;55.040;73.076;2023-08-06T10:56:02;21.75;19.25;12.75
80555;PMS5003;69889;55.040;73.076;2023-08-06T10:58:38;20.00;18.50;12.00
80555;PMS5003;69889;55.040;73.076;2023-08-06T11:01:04;23.00;20.25;12.25
80555;PMS5003;69889;55.040;73.076;2023-08-06T11:03:32;21.00;18.50;12.00
80555;PMS5003;69889;55.040;73.076;2023-08-06T11:06:00;22.25;19.25;12.00
80555;PMS5003;69889;55.040;73.076;2023-08-06T11:08:29;20.50;18.75;12.00
80555;PMS5003;69889;55.040;73.076;2023-08-06T11:10:56;22.00;19.00;13.00
80555;PMS5003;69889;55.040;73.076;2023-08-06T11:13:49;16.75;16.00;10.25
80555;PMS5003;69889;55.040;73.076;2023-08-06T11:16:20;17.00;16.00;11.00
80555;PMS5003;69889;55.040;73.076;2023-08-06T11:18:47;19.00;17.00;11.00
80555;PMS5003;69889;55.040;73.076;2023-08-06T11:21:13;18.50;17.25;12.00
80555;PMS5003;69889;55.040;73.076;2023-08-06T11:23:41;28.00;21.75;13.75
80555;PMS5003;69889;55.040;73.076;2023-08-06T11:26:07;20.00;18.00;12.00
80555;PMS5003;69889;55.040;73.076;2023-08-06T11:28:34;20.25;17.75;11.50
80555;PMS5003;69889;55.040;73.076;2023-08-06T11:31:00;31.00;25.00;15.00
80555;PMS5003;69889;55.040;73.076;2023-08-06T11:33:28;23.25;20.00;12.75
80555;PMS5003;69889;55.040;73.076;2023-08-06T11:35:55;19.75;18.00;12.00
80555;PMS5003;69889;55.040;73.076;2023-08-06T11:38:25;19.00;16.00;11.00
80555;PMS5003;69889;55.040;73.076;2023-08-06T11:40:53;16.75;16.00;11.25
80555;PMS5003;69889;55.040;73.076;2023-08-06T11:43:20;18.25;17.00;11.00
80555;PMS5003;69889;55.040;73.076;2023-08-06T11:45:49;17.50;16.00;11.00
80555;PMS5003;69889;55.040;73.076;2023-08-06T11:48:16;21.00;18.00;12.00
80555;PMS5003;69889;55.040;73.076;2023-08-06T11:50:43;19.00;18.00;11.50
80555;PMS5003;69889;55.040;73.076;2023-08-06T11:53:11;22.00;19.00;12.00
80555;PMS5003;69889;55.040;73.076;2023-08-06T11:55:38;20.75;18.00;13.00
80555;PMS5003;69889;55.040;73.076;2023-08-06T11:58:05;18.00;16.00;11.00
80555;PMS5003;69889;55.040;73.076;2023-08-06T12:00:31;17.00;15.00;10.00
80555;PMS5003;69889;55.040;73.076;2023-08-06T12:02:58;16.00;15.00;10.00
80555;PMS5003;69889;55.040;73.076;2023-08-06T12:05:31;15.00;14.00;10.00
80555;PMS5003;69889;55.040;73.076;2023-08-06T12:08:00;14.50;13.00;9.00
80555;PMS5003;69889;55.040;73.076;2023-08-06T12:10:27;13.00;12.00;8.00
80555;PMS5003;69889;55.040;73.076;2023-08-06T12:12:54;14.25;14.00;10.00
80555;PMS5003;69889;55.040;73.076;2023-08-06T12:15:21;18.25;16.50;11.00
80555;PMS5003;69889;55.040;73.076;2023-08-06T12:17:48;17.00;15.00;10.00
80555;PMS5003;69889;55.040;73.076;2023-08-06T12:20:16;13.00;12.00;8.00
80555;PMS5003;69889;55.040;73.076;2023-08-06T12:22:43;14.25;13.25;9.00
80555;PMS5003;69889;55.040;73.076;2023-08-06T12:25:12;13.00;12.00;8.00
80555;PMS5003;69889;55.040;73.076;2023-08-06T12:27:39;12.00;11.00;7.00
80555;PMS5003;69889;55.040;73.076;2023-08-06T12:30:07;12.00;11.00;8.00
80555;PMS5003;69889;55.040;73.076;2023-08-06T12:32:34;12.00;11.50;8.25
80555;PMS5003;69889;55.040;73.076;2023-08-06T12:35:01;13.00;12.00;9.00
80555;PMS5003;69889;55.040;73.076;2023-08-06T12:37:28;10.75;10.75;7.00
80555;PMS5003;69889;55.040;73.076;2023-08-06T12:39:54;11.75;11.00;7.50
80555;PMS5003;69889;55.040;73.076;2023-08-06T12:42:21;13.00;11.00;8.00
80555;PMS5003;69889;55.040;73.076;2023-08-06T12:44:50;11.00;11.00;7.00
80555;PMS5003;69889;55.040;73.076;2023-08-06T12:47:17;12.00;11.00;8.00
80555;PMS5003;69889;55.040;73.076;2023-08-06T12:49:44;12.00;11.00;7.00
80555;PMS5003;69889;55.040;73.076;2023-08-06T12:52:11;12.00;11.00;7.25
80555;PMS5003;69889;55.040;73.076;2023-08-06T12:54:38;12.00;11.00;7.25
80555;PMS5003;69889;55.040;73.076;2023-08-06T12:57:05;14.00;13.00;9.00
80555;PMS5003;69889;55.040;73.076;2023-08-06T12:59:32;12.00;11.00;8.00
80555;PMS5003;69889;55.040;73.076;2023-08-06T13:02:03;15.00;13.00;8.75
80555;PMS5003;69889;55.040;73.076;2023-08-06T13:04:30;13.00;11.00;8.00
80555;PMS5003;69889;55.040;73.076;2023-08-06T13:06:57;13.25;12.00;8.00
80555;PMS5003;69889;55.040;73.076;2023-08-06T13:09:24;11.00;10.00;7.00
80555;PMS5003;69889;55.040;73.076;2023-08-06T13:11:52;13.00;12.00;8.00
80555;PMS5003;69889;55.040;73.076;2023-08-06T13:14:19;13.00;12.00;7.00
80555;PMS5003;69889;55.040;73.076;2023-08-06T13:16:46;15.00;12.75;8.00
80555;PMS5003;69889;55.040;73.076;2023-08-06T13:19:12;12.00;11.00;7.00
80555;PMS5003;69889;55.040;73.076;2023-08-06T13:24:06;12.00;11.00;8.00
80555;PMS5003;69889;55.040;73.076;2023-08-06T13:26:33;11.50;11.00;7.00
80555;PMS5003;69889;55.040;73.076;2023-08-06T13:29:01;10.00;9.75;7.00
80555;PMS5003;69889;55.040;73.076;2023-08-06T13:31:28;17.00;14.00;9.00
80555;PMS5003;69889;55.040;73.076;2023-08-06T13:33:59;15.75;13.00;7.75
80555;PMS5003;69889;55.040;73.076;2023-08-06T13:36:26;11.00;10.00;6.25
80555;PMS5003;69889;55.040;73.076;2023-08-06T13:38:53;10.00;9.00;6.00
80555;PMS5003;69889;55.040;73.076;2023-08-06T13:41:19;9.25;8.50;6.00
80555;PMS5003;69889;55.040;73.076;2023-08-06T13:43:46;11.00;10.00;7.00
80555;PMS5003;69889;55.040;73.076;2023-08-06T13:46:13;11.00;9.00;6.00
80555;PMS5003;69889;55.040;73.076;2023-08-06T13:48:44;9.00;9.00;6.00
80555;PMS5003;69889;55.040;73.076;2023-08-06T13:51:11;8.50;8.00;6.00
80555;PMS5003;69889;55.040;73.076;2023-08-06T13:53:38;11.00;10.00;6.00